sensor_id;sensor_type;location;lat;lon;timestamp;P1;durP1;ratioP1;P2;durP2;ratioP2
11681;SDS011;5897;42.640;23.310;2023-09-30T00:01:47;9.57;;;4.90;;
11681;SDS011;5897;42.640;23.310;2023-09-30T00:04:14;9.75;;;5.07;;
11681;SDS011;5897;42.640;23.310;2023-09-30T00:06:41;8.90;;;5.07;;
11681;SDS011;5897;42.640;23.310;2023-09-30T00:09:08;8.85;;;5.07;;
11681;SDS011;5897;42.640;23.310;2023-09-30T00:11:36;6.32;;;4.93;;
11681;SDS011;5897;42.640;23.310;2023-09-30T00:14:05;12.38;;;5.35;;
11681;SDS011;5897;42.640;23.310;2023-09-30T00:16:32;9.38;;;5.10;;
11681;SDS011;5897;42.640;23.310;2023-09-30T00:18:59;11.90;;;5.03;;
11681;SDS011;5897;42.640;23.310;2023-09-30T00:21:27;10.55;;;5.15;;
11681;SDS011;5897;42.640;23.310;2023-09-30T00:23:54;8.30;;;4.90;;
11681;SDS011;5897;42.640;23.310;2023-09-30T00:26:21;8.88;;;4.70;;
11681;SDS011;5897;42.640;23.310;2023-09-30T00:28:48;9.23;;;4.72;;
11681;SDS011;5897;42.640;23.310;2023-09-30T00:31:16;8.27;;;4.82;;
11681;SDS011;5897;42.640;23.310;2023-09-30T00:33:43;13.35;;;4.93;;
11681;SDS011;5897;42.640;23.310;2023-09-30T00:36:10;11.43;;;4.97;;
11681;SDS011;5897;42.640;23.310;2023-09-30T00:38:37;12.15;;;5.07;;
11681;SDS011;5897;42.640;23.310;2023-09-30T00:41:05;11.00;;;4.88;;
11681;SDS011;5897;42.640;23.310;2023-09-30T00:43:32;12.52;;;5.43;;
11681;SDS011;5897;42.640;23.310;2023-09-30T00:46:01;8.38;;;4.85;;
11681;SDS011;5897;42.640;23.310;2023-09-30T00:48:33;9.02;;;4.75;;
11681;SDS011;5897;42.640;23.310;2023-09-30T00:51:00;9.75;;;4.68;;
11681;SDS011;5897;42.640;23.310;2023-09-30T00:53:28;8.68;;;4.40;;
11681;SDS011;5897;42.640;23.310;2023-09-30T00:55:55;10.60;;;4.63;;
11681;SDS011;5897;42.640;23.310;2023-09-30T00:58:23;10.27;;;4.55;;
11681;SDS011;5897;42.640;23.310;2023-09-30T01:00:54;10.00;;;4.72;;
11681;SDS011;5897;42.640;23.310;2023-09-30T01:03:23;8.88;;;4.63;;
11681;SDS011;5897;42.640;23.310;2023-09-30T01:05:51;9.02;;;4.38;;
11681;SDS011;5897;42.640;23.310;2023-09-30T01:08:18;7.95;;;4.22;;
11681;SDS011;5897;42.640;23.310;2023-09-30T01:10:46;8.00;;;4.68;;
11681;SDS011;5897;42.640;23.310;2023-09-30T01:13:13;8.05;;;4.15;;
11681;SDS011;5897;42.640;23.310;2023-09-30T01:15:40;11.13;;;4.72;;
11681;SDS011;5897;42.640;23.310;2023-09-30T01:18:07;8.18;;;4.80;;
11681;SDS011;5897;42.640;23.310;2023-09-30T01:20:33;8.25;;;4.60;;
11681;SDS011;5897;42.640;23.310;2023-09-30T01:23:02;12.25;;;4.70;;
11681;SDS011;5897;42.640;23.310;2023-09-30T01:25:30;10.45;;;4.90;;
11681;SDS011;5897;42.640;23.310;2023-09-30T01:27:58;11.05;;;4.72;;
11681;SDS011;5897;42.640;23.310;2023-09-30T01:30:31;15.75;;;4.80;;
11681;SDS011;5897;42.640;23.310;2023-09-30T01:32:58;8.75;;;4.90;;
11681;SDS011;5897;42.640;23.310;2023-09-30T01:35:25;9.73;;;4.57;;
11681;SDS011;5897;42.640;23.310;2023-09-30T01:37:52;11.13;;;4.60;;
11681;SDS011;5897;42.640;23.310;2023-09-30T01:40:20;6.32;;;4.47;;
11681;SDS011;5897;42.640;23.310;2023-09-30T01:42:47;8.15;;;4.60;;
11681;SDS011;5897;42.640;23.310;2023-09-30T01:45:14;10.82;;;4.68;;
11681;SDS011;5897;42.640;23.310;2023-09-30T01:47:41;11.50;;;5.20;;
11681;SDS011;5897;42.640;23.310;2023-09-30T01:50:08;10.02;;;4.50;;
11681;SDS011;5897;42.640;23.310;2023-09-30T01:52:35;8.75;;;4.90;;
11681;SDS011;5897;42.640;23.310;2023-09-30T01:55:02;8.60;;;4.38;;
11681;SDS011;5897;42.640;23.310;2023-09-30T01:57:30;10.10;;;4.72;;
11681;SDS011;5897;42.640;23.310;2023-09-30T01:59:57;8.05;;;4.28;;
11681;SDS011;5897;42.640;23.310;2023-09-30T02:02:24;10.60;;;4.70;;
11681;SDS011;5897;42.640;23.310;2023-09-30T02:04:51;8.77;;;4.63;;
11681;SDS011;5897;42.640;23.310;2023-09-30T02:07:18;7.80;;;4.10;;
11681;SDS011;5897;42.640;23.310;2023-09-30T02:09:45;8.45;;;4.70;;
11681;SDS011;5897;42.640;23.310;2023-09-30T02:12:12;12.30;;;4.85;;
11681;SDS011;5897;42.640;23.310;2023-09-30T02:14:40;8.57;;;4.78;;
11681;SDS011;5897;42.640;23.310;2023-09-30T02:17:07;6.93;;;4.38;;
11681;SDS011;5897;42.640;23.310;2023-09-30T02:19:34;6.60;;;4.57;;
11681;SDS011;5897;42.640;23.310;2023-09-30T02:22:01;7.32;;;4.40;;
11681;SDS011;5897;42.640;23.310;2023-09-30T02:24:27;9.77;;;4.93;;
11681;SDS011;5897;42.640;23.310;2023-09-30T02:26:55;6.43;;;4.60;;
11681;SDS011;5897;42.640;23.310;2023-09-30T02:29:21;9.00;;;4.75;;
11681;SDS011;5897;42.640;23.310;2023-09-30T02:31:49;12.27;;;4.80;;
11681;SDS011;5897;42.640;23.310;2023-09-30T02:34:17;6.90;;;4.50;;
11681;SDS011;5897;42.640;23.310;2023-09-30T02:36:44;7.75;;;4.63;;
11681;SDS011;5897;42.640;23.310;2023-09-30T02:39:11;11.77;;;5.28;;
11681;SDS011;5897;42.640;23.310;2023-09-30T02:41:41;6.63;;;5.00;;
11681;SDS011;5897;42.640;23.310;2023-09-30T02:44:08;9.82;;;4.88;;
11681;SDS011;5897;42.640;23.310;2023-09-30T02:46:35;8.02;;;4.15;;
11681;SDS011;5897;42.640;23.310;2023-09-30T02:49:04;11.60;;;5.20;;
11681;SDS011;5897;42.640;23.310;2023-09-30T02:51:30;9.05;;;4.43;;
11681;SDS011;5897;42.640;23.310;2023-09-30T02:53:57;8.18;;;4.97;;
11681;SDS011;5897;42.640;23.310;2023-09-30T02:56:24;5.72;;;4.65;;
11681;SDS011;5897;42.640;23.310;2023-09-30T02:58:51;9.23;;;5.18;;
11681;SDS011;5897;42.640;23.310;2023-09-30T03:01:19;7.25;;;4.53;;
11681;SDS011;5897;42.640;23.310;2023-09-30T03:03:46;11.70;;;4.57;;
11681;SDS011;5897;42.640;23.310;2023-09-30T03:06:14;11.27;;;4.80;;
11681;SDS011;5897;42.640;23.310;2023-09-30T03:08:41;11.13;;;4.28;;
11681;SDS011;5897;42.640;23.310;2023-09-30T03:11:07;11.23;;;4.43;;
11681;SDS011;5897;42.640;23.310;2023-09-30T03:13:34;8.15;;;4.45;;
11681;SDS011;5897;42.640;23.310;2023-09-30T03:16:02;7.47;;;4.80;;
11681;SDS011;5897;42.640;23.310;2023-09-30T03:18:29;10.65;;;4.65;;
11681;SDS011;5897;42.640;23.310;2023-09-30T03:20:58;13.75;;;5.30;;
11681;SDS011;5897;42.640;23.310;2023-09-30T03:23:28;9.30;;;4.80;;
11681;SDS011;5897;42.640;23.310;2023-09-30T03:25:58;7.95;;;4.45;;
11681;SDS011;5897;42.640;23.310;2023-09-30T03:28:29;9.60;;;4.75;;
11681;SDS011;5897;42.640;23.310;2023-09-30T03:30:55;9.30;;;4.60;;
11681;SDS011;5897;42.640;23.310;2023-09-30T03:33:22;9.40;;;5.20;;
11681;SDS011;5897;42.640;23.310;2023-09-30T03:35:49;8.60;;;4.78;;
11681;SDS011;5897;42.640;23.310;2023-09-30T03:38:16;7.65;;;5.30;;
11681;SDS011;5897;42.640;23.310;2023-09-30T03:40:46;10.05;;;5.38;;
11681;SDS011;5897;42.640;23.310;2023-09-30T03:43:13;13.70;;;5.43;;
11681;SDS011;5897;42.640;23.310;2023-09-30T03:45:40;10.85;;;6.10;;
11681;SDS011;5897;42.640;23.310;2023-09-30T03:48:07;9.20;;;5.47;;
11681;SDS011;5897;42.640;23.310;2023-09-30T03:50:35;7.30;;;5.72;;
11681;SDS011;5897;42.640;23.310;2023-09-30T03:53:03;6.55;;;4.68;;
11681;SDS011;5897;42.640;23.310;2023-09-30T03:55:32;11.32;;;5.70;;
11681;SDS011;5897;42.640;23.310;2023-09-30T03:58:01;10.23;;;6.00;;
11681;SDS011;5897;42.640;23.310;2023-09-30T04:00:29;11.02;;;5.90;;
11681;SDS011;5897;42.640;23.310;2023-09-30T04:02:55;10.20;;;6.05;;
11681;SDS011;5897;42.640;23.310;2023-09-30T04:05:24;7.90;;;5.97;;
11681;SDS011;5897;42.640;23.310;2023-09-30T04:07:54;13.10;;;5.95;;
11681;SDS011;5897;42.640;23.310;2023-09-30T04:10:21;10.27;;;5.80;;
11681;SDS011;5897;42.640;23.310;2023-09-30T04:12:48;14.65;;;6.22;;
11681;SDS011;5897;42.640;23.310;2023-09-30T04:15:17;10.48;;;5.93;;
11681;SDS011;5897;42.640;23.310;2023-09-30T04:17:44;10.90;;;5.30;;
11681;SDS011;5897;42.640;23.310;2023-09-30T04:20:11;12.18;;;5.30;;
11681;SDS011;5897;42.640;23.310;2023-09-30T04:22:45;8.20;;;5.30;;
11681;SDS011;5897;42.640;23.310;2023-09-30T04:25:13;10.40;;;4.93;;
11681;SDS011;5897;42.640;23.310;2023-09-30T04:27:41;11.02;;;5.57;;
11681;SDS011;5897;42.640;23.310;2023-09-30T04:30:13;12.95;;;5.15;;
11681;SDS011;5897;42.640;23.310;2023-09-30T04:32:41;13.30;;;5.20;;
11681;SDS011;5897;42.640;23.310;2023-09-30T04:35:08;13.35;;;5.35;;
11681;SDS011;5897;42.640;23.310;2023-09-30T04:37:36;13.07;;;5.90;;
11681;SDS011;5897;42.640;23.310;2023-09-30T04:40:04;11.40;;;5.95;;
11681;SDS011;5897;42.640;23.310;2023-09-30T04:42:40;16.77;;;6.90;;
11681;SDS011;5897;42.640;23.310;2023-09-30T04:45:08;13.57;;;6.00;;
11681;SDS011;5897;42.640;23.310;2023-09-30T04:47:35;17.95;;;6.00;;
11681;SDS011;5897;42.640;23.310;2023-09-30T04:50:05;11.85;;;7.15;;
11681;SDS011;5897;42.640;23.310;2023-09-30T04:52:33;18.58;;;6.45;;
11681;SDS011;5897;42.640;23.310;2023-09-30T04:55:00;14.82;;;6.32;;
11681;SDS011;5897;42.640;23.310;2023-09-30T04:57:29;14.05;;;5.97;;
11681;SDS011;5897;42.640;23.310;2023-09-30T04:59:56;17.48;;;6.65;;
11681;SDS011;5897;42.640;23.310;2023-09-30T05:02:23;21.40;;;6.60;;
11681;SDS011;5897;42.640;23.310;2023-09-30T05:04:51;20.42;;;7.22;;
11681;SDS011;5897;42.640;23.310;2023-09-30T05:07:20;16.55;;;7.13;;
11681;SDS011;5897;42.640;23.310;2023-09-30T05:09:47;16.02;;;7.22;;
11681;SDS011;5897;42.640;23.310;2023-09-30T05:12:14;16.33;;;7.22;;
11681;SDS011;5897;42.640;23.310;2023-09-30T05:14:41;15.15;;;7.75;;
11681;SDS011;5897;42.640;23.310;2023-09-30T05:17:09;15.52;;;7.45;;
11681;SDS011;5897;42.640;23.310;2023-09-30T05:19:36;10.75;;;6.60;;
11681;SDS011;5897;42.640;23.310;2023-09-30T05:22:03;18.25;;;7.32;;
11681;SDS011;5897;42.640;23.310;2023-09-30T05:24:31;15.48;;;6.90;;
11681;SDS011;5897;42.640;23.310;2023-09-30T05:27:00;13.90;;;6.85;;
11681;SDS011;5897;42.640;23.310;2023-09-30T05:29:26;14.32;;;7.03;;
11681;SDS011;5897;42.640;23.310;2023-09-30T05:31:53;14.85;;;7.20;;
11681;SDS011;5897;42.640;23.310;2023-09-30T05:34:21;16.90;;;7.80;;
11681;SDS011;5897;42.640;23.310;2023-09-30T05:36:48;14.55;;;7.18;;
11681;SDS011;5897;42.640;23.310;2023-09-30T05:39:16;14.77;;;6.85;;
11681;SDS011;5897;42.640;23.310;2023-09-30T05:41:46;15.40;;;6.40;;
11681;SDS011;5897;42.640;23.310;2023-09-30T05:44:13;14.98;;;7.13;;
11681;SDS011;5897;42.640;23.310;2023-09-30T05:46:40;11.63;;;6.28;;
11681;SDS011;5897;42.640;23.310;2023-09-30T05:49:07;14.52;;;6.65;;
11681;SDS011;5897;42.640;23.310;2023-09-30T05:51:39;15.50;;;6.28;;
11681;SDS011;5897;42.640;23.310;2023-09-30T05:54:06;11.10;;;6.50;;
11681;SDS011;5897;42.640;23.310;2023-09-30T05:56:35;14.90;;;7.57;;
11681;SDS011;5897;42.640;23.310;2023-09-30T05:59:04;17.33;;;7.28;;
11681;SDS011;5897;42.640;23.310;2023-09-30T06:01:31;14.98;;;7.10;;
11681;SDS011;5897;42.640;23.310;2023-09-30T06:03:59;15.57;;;7.30;;
11681;SDS011;5897;42.640;23.310;2023-09-30T06:06:25;16.50;;;7.80;;
11681;SDS011;5897;42.640;23.310;2023-09-30T06:08:53;17.70;;;8.38;;
11681;SDS011;5897;42.640;23.310;2023-09-30T06:11:21;16.25;;;8.10;;
11681;SDS011;5897;42.640;23.310;2023-09-30T06:13:49;13.90;;;7.40;;
11681;SDS011;5897;42.640;23.310;2023-09-30T06:16:17;13.00;;;6.50;;
11681;SDS011;5897;42.640;23.310;2023-09-30T06:18:44;19.83;;;7.88;;
11681;SDS011;5897;42.640;23.310;2023-09-30T06:21:11;14.55;;;7.13;;
11681;SDS011;5897;42.640;23.310;2023-09-30T06:23:39;12.63;;;6.40;;
11681;SDS011;5897;42.640;23.310;2023-09-30T06:26:06;19.10;;;7.47;;
11681;SDS011;5897;42.640;23.310;2023-09-30T06:28:34;11.93;;;7.20;;
11681;SDS011;5897;42.640;23.310;2023-09-30T06:31:06;13.30;;;6.57;;
11681;SDS011;5897;42.640;23.310;2023-09-30T06:33:34;20.42;;;7.22;;
11681;SDS011;5897;42.640;23.310;2023-09-30T06:36:03;16.27;;;6.85;;
11681;SDS011;5897;42.640;23.310;2023-09-30T06:38:34;17.95;;;7.97;;
11681;SDS011;5897;42.640;23.310;2023-09-30T06:41:02;15.38;;;6.90;;
11681;SDS011;5897;42.640;23.310;2023-09-30T06:43:28;16.95;;;7.10;;
11681;SDS011;5897;42.640;23.310;2023-09-30T06:45:55;14.63;;;6.72;;
11681;SDS011;5897;42.640;23.310;2023-09-30T06:48:22;12.63;;;6.88;;
11681;SDS011;5897;42.640;23.310;2023-09-30T06:50:50;10.98;;;5.85;;
11681;SDS011;5897;42.640;23.310;2023-09-30T06:53:17;11.23;;;5.80;;
11681;SDS011;5897;42.640;23.310;2023-09-30T06:55:46;11.45;;;6.22;;
11681;SDS011;5897;42.640;23.310;2023-09-30T06:58:13;11.52;;;6.35;;
11681;SDS011;5897;42.640;23.310;2023-09-30T07:00:45;9.30;;;6.00;;
11681;SDS011;5897;42.640;23.310;2023-09-30T07:03:14;9.55;;;6.07;;
11681;SDS011;5897;42.640;23.310;2023-09-30T07:05:41;10.60;;;6.05;;
11681;SDS011;5897;42.640;23.310;2023-09-30T07:08:09;12.00;;;6.50;;
11681;SDS011;5897;42.640;23.310;2023-09-30T07:10:36;14.63;;;6.45;;
11681;SDS011;5897;42.640;23.310;2023-09-30T07:13:03;12.60;;;5.85;;
11681;SDS011;5897;42.640;23.310;2023-09-30T07:15:31;13.75;;;6.20;;
11681;SDS011;5897;42.640;23.310;2023-09-30T07:17:59;15.57;;;6.68;;
11681;SDS011;5897;42.640;23.310;2023-09-30T07:20:25;14.20;;;6.63;;
11681;SDS011;5897;42.640;23.310;2023-09-30T07:22:53;13.05;;;6.25;;
11681;SDS011;5897;42.640;23.310;2023-09-30T07:25:21;17.00;;;6.13;;
11681;SDS011;5897;42.640;23.310;2023-09-30T07:27:48;9.48;;;6.07;;
11681;SDS011;5897;42.640;23.310;2023-09-30T07:30:14;14.02;;;6.30;;
11681;SDS011;5897;42.640;23.310;2023-09-30T07:32:41;11.48;;;5.32;;
11681;SDS011;5897;42.640;23.310;2023-09-30T07:35:08;14.70;;;5.95;;
11681;SDS011;5897;42.640;23.310;2023-09-30T07:37:35;12.07;;;5.47;;
11681;SDS011;5897;42.640;23.310;2023-09-30T07:40:02;13.10;;;5.65;;
11681;SDS011;5897;42.640;23.310;2023-09-30T07:42:31;9.93;;;4.72;;
11681;SDS011;5897;42.640;23.310;2023-09-30T07:45:00;10.95;;;4.78;;
11681;SDS011;5897;42.640;23.310;2023-09-30T07:47:28;9.02;;;4.30;;
11681;SDS011;5897;42.640;23.310;2023-09-30T07:49:55;11.80;;;3.78;;
11681;SDS011;5897;42.640;23.310;2023-09-30T07:52:22;12.55;;;4.35;;
11681;SDS011;5897;42.640;23.310;2023-09-30T07:54:49;8.02;;;4.40;;
11681;SDS011;5897;42.640;23.310;2023-09-30T07:57:16;9.60;;;4.32;;
11681;SDS011;5897;42.640;23.310;2023-09-30T07:59:44;9.05;;;3.63;;
11681;SDS011;5897;42.640;23.310;2023-09-30T08:02:11;7.57;;;4.07;;
11681;SDS011;5897;42.640;23.310;2023-09-30T08:04:37;13.98;;;4.32;;
11681;SDS011;5897;42.640;23.310;2023-09-30T08:07:04;13.13;;;4.32;;
11681;SDS011;5897;42.640;23.310;2023-09-30T08:09:31;12.43;;;4.78;;
11681;SDS011;5897;42.640;23.310;2023-09-30T08:11:57;11.32;;;3.95;;
11681;SDS011;5897;42.640;23.310;2023-09-30T08:14:24;13.20;;;4.72;;
11681;SDS011;5897;42.640;23.310;2023-09-30T08:16:52;9.18;;;4.53;;
11681;SDS011;5897;42.640;23.310;2023-09-30T08:19:19;12.23;;;4.40;;
11681;SDS011;5897;42.640;23.310;2023-09-30T08:21:46;7.65;;;4.20;;
11681;SDS011;5897;42.640;23.310;2023-09-30T08:24:14;12.25;;;4.22;;
11681;SDS011;5897;42.640;23.310;2023-09-30T08:26:40;13.65;;;7.13;;
11681;SDS011;5897;42.640;23.310;2023-09-30T08:29:07;15.55;;;4.70;;
11681;SDS011;5897;42.640;23.310;2023-09-30T08:31:34;12.65;;;4.30;;
11681;SDS011;5897;42.640;23.310;2023-09-30T08:34:02;9.45;;;4.35;;
11681;SDS011;5897;42.640;23.310;2023-09-30T08:36:29;10.20;;;4.38;;
11681;SDS011;5897;42.640;23.310;2023-09-30T08:38:57;13.70;;;5.75;;
11681;SDS011;5897;42.640;23.310;2023-09-30T08:41:24;15.32;;;6.13;;
11681;SDS011;5897;42.640;23.310;2023-09-30T08:43:58;10.23;;;5.40;;
11681;SDS011;5897;42.640;23.310;2023-09-30T08:46:26;12.95;;;6.25;;
11681;SDS011;5897;42.640;23.310;2023-09-30T08:48:57;8.07;;;5.93;;
11681;SDS011;5897;42.640;23.310;2023-09-30T08:51:26;15.38;;;6.47;;
11681;SDS011;5897;42.640;23.310;2023-09-30T08:53:55;15.75;;;6.40;;
11681;SDS011;5897;42.640;23.310;2023-09-30T08:56:24;10.38;;;5.97;;
11681;SDS011;5897;42.640;23.310;2023-09-30T08:58:54;10.10;;;5.43;;
11681;SDS011;5897;42.640;23.310;2023-09-30T09:01:24;10.88;;;6.93;;
11681;SDS011;5897;42.640;23.310;2023-09-30T09:03:51;10.95;;;6.22;;
11681;SDS011;5897;42.640;23.310;2023-09-30T09:06:18;15.68;;;6.05;;
11681;SDS011;5897;42.640;23.310;2023-09-30T09:08:47;9.82;;;6.15;;
11681;SDS011;5897;42.640;23.310;2023-09-30T09:11:14;15.95;;;6.80;;
11681;SDS011;5897;42.640;23.310;2023-09-30T09:13:48;8.68;;;5.65;;
11681;SDS011;5897;42.640;23.310;2023-09-30T09:16:16;9.35;;;5.63;;
11681;SDS011;5897;42.640;23.310;2023-09-30T09:18:44;11.52;;;7.22;;
11681;SDS011;5897;42.640;23.310;2023-09-30T09:21:13;9.82;;;5.65;;
11681;SDS011;5897;42.640;23.310;2023-09-30T09:23:42;18.83;;;14.60;;
11681;SDS011;5897;42.640;23.310;2023-09-30T09:26:11;25.05;;;11.18;;
11681;SDS011;5897;42.640;23.310;2023-09-30T09:28:39;9.23;;;5.70;;
11681;SDS011;5897;42.640;23.310;2023-09-30T09:31:19;9.90;;;6.45;;
11681;SDS011;5897;42.640;23.310;2023-09-30T09:33:48;12.20;;;5.13;;
11681;SDS011;5897;42.640;23.310;2023-09-30T09:36:15;14.35;;;5.57;;
11681;SDS011;5897;42.640;23.310;2023-09-30T09:38:45;12.38;;;6.07;;
11681;SDS011;5897;42.640;23.310;2023-09-30T09:41:18;9.75;;;5.50;;
11681;SDS011;5897;42.640;23.310;2023-09-30T09:43:45;7.93;;;4.65;;
11681;SDS011;5897;42.640;23.310;2023-09-30T09:46:15;8.57;;;5.05;;
11681;SDS011;5897;42.640;23.310;2023-09-30T09:48:44;11.13;;;4.55;;
11681;SDS011;5897;42.640;23.310;2023-09-30T09:51:12;9.43;;;4.70;;
11681;SDS011;5897;42.640;23.310;2023-09-30T09:53:40;12.32;;;5.32;;
11681;SDS011;5897;42.640;23.310;2023-09-30T09:56:08;12.57;;;5.60;;
11681;SDS011;5897;42.640;23.310;2023-09-30T09:58:38;17.17;;;7.13;;
11681;SDS011;5897;42.640;23.310;2023-09-30T10:01:07;9.50;;;5.22;;
11681;SDS011;5897;42.640;23.310;2023-09-30T10:03:38;12.10;;;6.68;;
11681;SDS011;5897;42.640;23.310;2023-09-30T10:06:05;10.32;;;6.30;;
11681;SDS011;5897;42.640;23.310;2023-09-30T10:08:35;7.50;;;4.70;;
11681;SDS011;5897;42.640;23.310;2023-09-30T10:11:05;10.68;;;3.83;;
11681;SDS011;5897;42.640;23.310;2023-09-30T10:19:17;10.20;;;4.05;;
11681;SDS011;5897;42.640;23.310;2023-09-30T10:24:49;9.60;;;3.70;;
11681;SDS011;5897;42.640;23.310;2023-09-30T10:27:32;14.20;;;7.00;;
11681;SDS011;5897;42.640;23.310;2023-09-30T10:30:10;6.47;;;3.92;;
11681;SDS011;5897;42.640;23.310;2023-09-30T10:35:45;10.48;;;5.57;;
11681;SDS011;5897;42.640;23.310;2023-09-30T10:41:09;11.77;;;4.43;;
11681;SDS011;5897;42.640;23.310;2023-09-30T10:43:37;7.15;;;3.38;;
11681;SDS011;5897;42.640;23.310;2023-09-30T10:51:59;6.90;;;2.83;;
11681;SDS011;5897;42.640;23.310;2023-09-30T10:54:27;6.03;;;2.95;;
11681;SDS011;5897;42.640;23.310;2023-09-30T10:56:55;7.50;;;3.33;;
11681;SDS011;5897;42.640;23.310;2023-09-30T10:59:24;9.60;;;4.28;;
11681;SDS011;5897;42.640;23.310;2023-09-30T11:01:53;7.35;;;2.80;;
11681;SDS011;5897;42.640;23.310;2023-09-30T11:04:20;4.80;;;2.70;;
11681;SDS011;5897;42.640;23.310;2023-09-30T11:06:47;5.75;;;3.00;;
11681;SDS011;5897;42.640;23.310;2023-09-30T11:09:16;8.48;;;3.08;;
11681;SDS011;5897;42.640;23.310;2023-09-30T11:11:45;7.90;;;3.55;;
11681;SDS011;5897;42.640;23.310;2023-09-30T11:14:21;11.25;;;3.05;;
11681;SDS011;5897;42.640;23.310;2023-09-30T11:16:50;3.90;;;2.90;;
11681;SDS011;5897;42.640;23.310;2023-09-30T11:19:22;7.90;;;2.63;;
11681;SDS011;5897;42.640;23.310;2023-09-30T11:21:50;5.30;;;2.90;;
11681;SDS011;5897;42.640;23.310;2023-09-30T11:24:18;8.93;;;3.60;;
11681;SDS011;5897;42.640;23.310;2023-09-30T11:26:45;5.80;;;3.10;;
11681;SDS011;5897;42.640;23.310;2023-09-30T11:29:13;7.55;;;2.92;;
11681;SDS011;5897;42.640;23.310;2023-09-30T11:31:41;3.42;;;3.13;;
11681;SDS011;5897;42.640;23.310;2023-09-30T11:34:09;7.80;;;3.33;;
11681;SDS011;5897;42.640;23.310;2023-09-30T11:36:40;6.97;;;3.97;;
11681;SDS011;5897;42.640;23.310;2023-09-30T11:39:20;7.28;;;2.85;;
11681;SDS011;5897;42.640;23.310;2023-09-30T11:41:49;7.00;;;3.42;;
11681;SDS011;5897;42.640;23.310;2023-09-30T11:44:16;9.93;;;3.60;;
11681;SDS011;5897;42.640;23.310;2023-09-30T11:46:49;6.18;;;2.95;;
11681;SDS011;5897;42.640;23.310;2023-09-30T11:49:25;4.82;;;3.28;;
11681;SDS011;5897;42.640;23.310;2023-09-30T11:51:55;10.77;;;3.55;;
11681;SDS011;5897;42.640;23.310;2023-09-30T11:54:28;8.85;;;3.20;;
11681;SDS011;5897;42.640;23.310;2023-09-30T11:56:55;8.00;;;3.42;;
11681;SDS011;5897;42.640;23.310;2023-09-30T11:59:22;7.20;;;3.55;;
11681;SDS011;5897;42.640;23.310;2023-09-30T12:01:49;6.18;;;3.50;;
11681;SDS011;5897;42.640;23.310;2023-09-30T12:04:16;6.60;;;2.90;;
11681;SDS011;5897;42.640;23.310;2023-09-30T12:06:44;7.03;;;3.28;;
11681;SDS011;5897;42.640;23.310;2023-09-30T12:09:13;9.88;;;3.42;;
11681;SDS011;5897;42.640;23.310;2023-09-30T12:11:41;9.13;;;3.70;;
11681;SDS011;5897;42.640;23.310;2023-09-30T12:14:09;4.75;;;3.47;;
11681;SDS011;5897;42.640;23.310;2023-09-30T12:16:37;6.72;;;3.45;;
11681;SDS011;5897;42.640;23.310;2023-09-30T12:19:04;10.20;;;3.58;;
11681;SDS011;5897;42.640;23.310;2023-09-30T12:21:32;8.88;;;4.00;;
11681;SDS011;5897;42.640;23.310;2023-09-30T12:23:59;9.95;;;3.67;;
11681;SDS011;5897;42.640;23.310;2023-09-30T12:26:28;6.25;;;3.53;;
11681;SDS011;5897;42.640;23.310;2023-09-30T12:28:55;6.57;;;3.40;;
11681;SDS011;5897;42.640;23.310;2023-09-30T12:31:23;10.60;;;3.42;;
11681;SDS011;5897;42.640;23.310;2023-09-30T12:33:50;9.35;;;4.15;;
11681;SDS011;5897;42.640;23.310;2023-09-30T12:36:20;4.38;;;2.90;;
11681;SDS011;5897;42.640;23.310;2023-09-30T12:38:49;6.78;;;3.35;;
11681;SDS011;5897;42.640;23.310;2023-09-30T12:41:16;9.95;;;3.50;;
11681;SDS011;5897;42.640;23.310;2023-09-30T12:43:45;9.07;;;3.42;;
11681;SDS011;5897;42.640;23.310;2023-09-30T12:46:12;8.48;;;3.38;;
11681;SDS011;5897;42.640;23.310;2023-09-30T12:48:39;7.80;;;3.28;;
11681;SDS011;5897;42.640;23.310;2023-09-30T12:51:06;8.30;;;3.55;;
11681;SDS011;5897;42.640;23.310;2023-09-30T12:53:34;4.18;;;3.72;;
11681;SDS011;5897;42.640;23.310;2023-09-30T12:56:00;7.65;;;3.70;;
11681;SDS011;5897;42.640;23.310;2023-09-30T12:58:27;7.32;;;3.78;;
11681;SDS011;5897;42.640;23.310;2023-09-30T13:00:56;6.90;;;3.47;;
11681;SDS011;5897;42.640;23.310;2023-09-30T13:03:25;11.90;;;3.95;;
11681;SDS011;5897;42.640;23.310;2023-09-30T13:05:52;7.43;;;3.58;;
11681;SDS011;5897;42.640;23.310;2023-09-30T13:08:19;7.88;;;3.50;;
11681;SDS011;5897;42.640;23.310;2023-09-30T13:10:46;6.13;;;3.70;;
11681;SDS011;5897;42.640;23.310;2023-09-30T13:13:15;5.60;;;3.40;;
11681;SDS011;5897;42.640;23.310;2023-09-30T13:15:42;5.82;;;3.20;;
11681;SDS011;5897;42.640;23.310;2023-09-30T13:18:10;8.07;;;3.63;;
11681;SDS011;5897;42.640;23.310;2023-09-30T13:20:37;6.50;;;3.67;;
11681;SDS011;5897;42.640;23.310;2023-09-30T13:23:04;11.57;;;3.83;;
11681;SDS011;5897;42.640;23.310;2023-09-30T13:25:31;5.82;;;3.50;;
11681;SDS011;5897;42.640;23.310;2023-09-30T13:27:57;6.18;;;3.17;;
11681;SDS011;5897;42.640;23.310;2023-09-30T13:30:24;7.03;;;3.30;;
11681;SDS011;5897;42.640;23.310;2023-09-30T13:32:51;6.05;;;3.42;;
11681;SDS011;5897;42.640;23.310;2023-09-30T13:35:19;9.93;;;3.83;;
11681;SDS011;5897;42.640;23.310;2023-09-30T13:37:46;8.52;;;4.30;;
11681;SDS011;5897;42.640;23.310;2023-09-30T13:40:13;10.45;;;3.67;;
11681;SDS011;5897;42.640;23.310;2023-09-30T13:42:40;5.68;;;4.07;;
11681;SDS011;5897;42.640;23.310;2023-09-30T13:45:07;11.10;;;3.92;;
11681;SDS011;5897;42.640;23.310;2023-09-30T13:47:35;8.32;;;3.95;;
11681;SDS011;5897;42.640;23.310;2023-09-30T13:50:02;5.28;;;3.90;;
11681;SDS011;5897;42.640;23.310;2023-09-30T13:52:33;7.82;;;3.50;;
11681;SDS011;5897;42.640;23.310;2023-09-30T13:55:00;6.38;;;3.65;;
11681;SDS011;5897;42.640;23.310;2023-09-30T13:57:27;8.32;;;3.80;;
11681;SDS011;5897;42.640;23.310;2023-09-30T13:59:54;8.10;;;4.18;;
11681;SDS011;5897;42.640;23.310;2023-09-30T14:02:21;7.50;;;4.57;;
11681;SDS011;5897;42.640;23.310;2023-09-30T14:04:48;12.45;;;4.40;;
11681;SDS011;5897;42.640;23.310;2023-09-30T14:07:15;10.43;;;4.05;;
11681;SDS011;5897;42.640;23.310;2023-09-30T14:09:44;8.35;;;3.88;;
11681;SDS011;5897;42.640;23.310;2023-09-30T14:12:12;9.50;;;4.30;;
11681;SDS011;5897;42.640;23.310;2023-09-30T14:14:39;7.13;;;4.18;;
11681;SDS011;5897;42.640;23.310;2023-09-30T14:17:06;8.27;;;4.03;;
11681;SDS011;5897;42.640;23.310;2023-09-30T14:19:36;9.50;;;4.15;;
11681;SDS011;5897;42.640;23.310;2023-09-30T14:22:03;8.25;;;4.15;;
11681;SDS011;5897;42.640;23.310;2023-09-30T14:24:31;11.50;;;4.20;;
11681;SDS011;5897;42.640;23.310;2023-09-30T14:26:59;7.78;;;3.53;;
11681;SDS011;5897;42.640;23.310;2023-09-30T14:29:26;8.50;;;3.72;;
11681;SDS011;5897;42.640;23.310;2023-09-30T14:31:53;6.68;;;3.67;;
11681;SDS011;5897;42.640;23.310;2023-09-30T14:34:21;8.27;;;3.47;;
11681;SDS011;5897;42.640;23.310;2023-09-30T14:36:48;7.03;;;4.05;;
11681;SDS011;5897;42.640;23.310;2023-09-30T14:39:20;8.55;;;3.70;;
11681;SDS011;5897;42.640;23.310;2023-09-30T14:41:48;7.95;;;3.80;;
11681;SDS011;5897;42.640;23.310;2023-09-30T14:44:16;7.68;;;3.63;;
11681;SDS011;5897;42.640;23.310;2023-09-30T14:46:43;8.38;;;3.75;;
11681;SDS011;5897;42.640;23.310;2023-09-30T14:49:10;7.15;;;3.60;;
11681;SDS011;5897;42.640;23.310;2023-09-30T14:51:37;9.32;;;3.17;;
11681;SDS011;5897;42.640;23.310;2023-09-30T14:54:04;7.65;;;3.83;;
11681;SDS011;5897;42.640;23.310;2023-09-30T14:56:31;11.32;;;3.45;;
11681;SDS011;5897;42.640;23.310;2023-09-30T14:58:58;10.88;;;3.45;;
11681;SDS011;5897;42.640;23.310;2023-09-30T15:01:26;10.20;;;3.72;;
11681;SDS011;5897;42.640;23.310;2023-09-30T15:03:54;7.75;;;3.92;;
11681;SDS011;5897;42.640;23.310;2023-09-30T15:06:21;8.57;;;3.40;;